createdAt,value
2018-12-05T00:01:18.575Z,20.80
2018-12-05T00:03:51.790Z,20.80
2018-12-05T00:06:26.526Z,20.70
2018-12-05T00:09:00.556Z,20.70
2018-12-05T00:11:34.826Z,20.60
2018-12-05T00:17:01.113Z,20.50
2018-12-05T00:19:39.827Z,20.50
2018-12-05T00:22:22.641Z,20.40
2018-12-05T00:25:00.090Z,20.40
2018-12-05T00:27:35.522Z,20.30
2018-12-05T00:30:12.747Z,20.30
2018-12-05T00:32:49.560Z,20.20
2018-12-05T00:35:22.877Z,20.10
2018-12-05T00:37:56.628Z,20.10
2018-12-05T00:40:42.103Z,20.10
2018-12-05T00:43:32.385Z,20.10
2018-12-05T00:46:10.170Z,20.10
2018-12-05T00:48:49.217Z,20.00
2018-12-05T00:51:33.494Z,20.00
2018-12-05T00:54:10.279Z,20.00
2018-12-05T00:56:45.394Z,20.00
2018-12-05T00:59:19.143Z,20.00
2018-12-05T01:01:51.838Z,20.00
2018-12-05T01:07:46.893Z,19.90
2018-12-05T01:10:19.520Z,19.80
2018-12-05T01:12:53.299Z,19.80
2018-12-05T01:15:25.907Z,19.70
2018-12-05T01:18:00.917Z,19.60
2018-12-05T01:20:36.516Z,19.50
2018-12-05T01:26:35.724Z,19.30
2018-12-05T01:29:08.655Z,19.30
2018-12-05T01:31:42.259Z,19.20
2018-12-05T01:34:17.930Z,19.10
2018-12-05T01:40:29.347Z,19.10
2018-12-05T01:43:03.847Z,19.10
2018-12-05T01:45:36.883Z,19.00
2018-12-05T01:48:10.017Z,19.00
2018-12-05T01:50:43.367Z,19.00
2018-12-05T01:56:29.770Z,18.90
2018-12-05T01:59:09.760Z,18.80
2018-12-05T02:01:43.296Z,18.80
2018-12-05T02:04:16.000Z,18.60
2018-12-05T02:06:49.318Z,18.70
2018-12-05T02:09:25.581Z,18.60
2018-12-05T02:11:59.579Z,18.50
2018-12-05T02:14:32.220Z,18.50
2018-12-05T02:17:05.519Z,18.40
2018-12-05T02:19:38.058Z,18.40
2018-12-05T02:22:12.184Z,18.40
2018-12-05T02:24:45.487Z,18.30
2018-12-05T02:27:18.483Z,18.30
2018-12-05T02:29:56.578Z,18.30
2018-12-05T02:32:30.589Z,18.20
2018-12-05T02:35:02.933Z,18.10
2018-12-05T02:37:37.359Z,18.10
2018-12-05T02:40:10.358Z,18.10
2018-12-05T02:42:43.067Z,18.10
2018-12-05T02:45:15.323Z,18.00
2018-12-05T02:47:48.517Z,18.10
2018-12-05T02:50:20.700Z,18.10
2018-12-05T02:52:53.045Z,18.00
2018-12-05T02:55:25.535Z,18.00
2018-12-05T02:58:03.880Z,17.90
2018-12-05T03:00:39.089Z,17.90
2018-12-05T03:06:36.171Z,17.80
2018-12-05T03:09:10.270Z,17.80
2018-12-05T03:11:42.966Z,17.80
2018-12-05T03:14:15.641Z,17.70
2018-12-05T03:20:20.180Z,17.60
2018-12-05T03:22:55.225Z,17.60
2018-12-05T03:25:28.438Z,17.60
2018-12-05T03:28:01.682Z,17.60
2018-12-05T03:30:35.947Z,17.50
2018-12-05T03:33:09.927Z,17.50
2018-12-05T03:35:49.303Z,17.50
2018-12-05T03:38:21.896Z,17.50
2018-12-05T03:40:55.273Z,17.50
2018-12-05T03:43:27.818Z,17.40
2018-12-05T03:46:01.826Z,17.40
2018-12-05T03:48:37.458Z,17.40
2018-12-05T03:51:10.939Z,17.30
2018-12-05T03:53:43.536Z,17.30
2018-12-05T03:56:17.074Z,17.30
2018-12-05T03:58:49.651Z,17.40
2018-12-05T04:01:22.813Z,17.40
2018-12-05T04:03:55.500Z,17.30
2018-12-05T04:06:28.930Z,17.30
2018-12-05T04:09:03.717Z,17.30
2018-12-05T04:11:36.855Z,17.20
2018-12-05T04:14:09.790Z,17.10
2018-12-05T04:16:43.984Z,17.20
2018-12-05T04:19:16.565Z,17.20
2018-12-05T04:21:49.347Z,17.20
2018-12-05T04:24:21.994Z,17.20
2018-12-05T04:26:58.153Z,17.20
2018-12-05T04:29:31.232Z,17.20
2018-12-05T04:32:05.439Z,17.10
2018-12-05T04:34:38.062Z,17.00
2018-12-05T04:37:11.856Z,17.00
2018-12-05T04:39:45.631Z,16.90
2018-12-05T04:42:19.214Z,16.90
2018-12-05T04:45:27.345Z,16.80
2018-12-05T04:48:00.427Z,16.80
2018-12-05T04:50:34.377Z,16.70
2018-12-05T04:53:07.011Z,16.60
2018-12-05T04:55:39.276Z,16.50
2018-12-05T04:58:11.608Z,16.40
2018-12-05T05:00:43.962Z,16.40
2018-12-05T05:03:16.456Z,16.30
2018-12-05T05:05:48.796Z,16.20
2018-12-05T05:08:21.093Z,16.20
2018-12-05T05:10:53.582Z,16.30
2018-12-05T05:13:25.835Z,16.30
2018-12-05T05:15:58.319Z,16.30
2018-12-05T05:18:30.774Z,16.30
2018-12-05T05:21:47.878Z,16.30
2018-12-05T05:24:21.401Z,16.30
2018-12-05T05:26:53.955Z,16.20
2018-12-05T05:29:26.480Z,16.20
2018-12-05T05:32:01.446Z,16.10
2018-12-05T05:34:34.185Z,16.10
2018-12-05T05:37:08.108Z,16.10
2018-12-05T05:39:40.984Z,16.10
2018-12-05T05:42:14.621Z,16.10
2018-12-05T05:44:47.259Z,16.20
2018-12-05T05:47:20.039Z,16.10
2018-12-05T05:49:52.538Z,16.10
2018-12-05T05:52:25.325Z,16.10
2018-12-05T05:55:01.119Z,16.00
2018-12-05T06:00:54.196Z,15.90
2018-12-05T06:03:26.577Z,15.90
2018-12-05T06:06:01.066Z,15.80
2018-12-05T06:08:33.676Z,15.80
2018-12-05T06:11:06.129Z,15.80
2018-12-05T06:13:39.828Z,15.80
2018-12-05T06:16:12.268Z,15.80
2018-12-05T06:18:45.664Z,15.70
2018-12-05T06:21:18.100Z,15.70
2018-12-05T06:23:52.391Z,15.70
2018-12-05T06:29:56.542Z,15.70
2018-12-05T06:32:29.870Z,15.70
2018-12-05T06:35:02.373Z,15.70
2018-12-05T06:37:34.793Z,15.60
2018-12-05T06:40:11.038Z,15.60
2018-12-05T06:42:43.565Z,15.60
2018-12-05T06:45:17.623Z,15.70
2018-12-05T06:47:51.104Z,15.60
2018-12-05T06:50:23.502Z,15.60
2018-12-05T06:52:55.965Z,15.40
2018-12-05T06:55:29.099Z,15.40
2018-12-05T06:58:02.219Z,15.40
2018-12-05T07:00:34.620Z,15.40
2018-12-05T07:03:47.602Z,15.40
2018-12-05T07:06:21.167Z,15.40
2018-12-05T07:08:55.545Z,15.50
2018-12-05T07:11:28.923Z,15.40
2018-12-05T07:14:01.400Z,15.40
2018-12-05T07:16:33.812Z,15.40
2018-12-05T07:19:06.183Z,15.40
2018-12-05T07:21:38.603Z,15.40
2018-12-05T07:24:10.922Z,15.30
2018-12-05T07:26:43.322Z,15.20
2018-12-05T07:29:17.617Z,15.20
2018-12-05T07:31:50.293Z,15.30
2018-12-05T07:34:23.528Z,15.30
2018-12-05T07:36:56.882Z,15.40
2018-12-05T07:39:29.238Z,15.40
2018-12-05T07:42:02.413Z,15.50
2018-12-05T07:44:34.820Z,15.50
2018-12-05T07:47:07.768Z,15.50
2018-12-05T07:49:41.182Z,15.40
2018-12-05T07:52:15.530Z,15.40
2018-12-05T07:54:47.878Z,15.40
2018-12-05T07:57:21.150Z,15.40
2018-12-05T07:59:53.511Z,15.40
2018-12-05T08:02:26.179Z,15.40
2018-12-05T08:04:59.479Z,15.40
2018-12-05T08:07:31.878Z,15.40
2018-12-05T08:10:04.294Z,15.30
2018-12-05T08:12:37.458Z,15.30
2018-12-05T08:15:11.135Z,15.30
2018-12-05T08:17:43.567Z,15.30
2018-12-05T08:20:16.123Z,15.40
2018-12-05T08:22:49.481Z,15.50
2018-12-05T08:25:22.854Z,15.50
2018-12-05T08:27:56.000Z,15.50
2018-12-05T08:30:30.229Z,15.50
2018-12-05T08:33:02.578Z,15.60
2018-12-05T08:35:35.008Z,15.60
2018-12-05T08:38:08.021Z,15.70
2018-12-05T08:40:41.126Z,15.60
2018-12-05T08:43:14.626Z,15.60
2018-12-05T08:45:47.284Z,15.60
2018-12-05T08:48:20.624Z,15.60
2018-12-05T08:50:53.119Z,15.70
2018-12-05T08:53:26.362Z,15.70
2018-12-05T08:55:59.182Z,15.70
2018-12-05T08:59:08.259Z,15.60
2018-12-05T09:01:40.786Z,15.60
2018-12-05T09:04:14.034Z,15.50
2018-12-05T09:06:46.391Z,15.50
2018-12-05T09:09:19.726Z,15.50
2018-12-05T09:11:52.759Z,15.60
2018-12-05T09:14:28.770Z,15.60
2018-12-05T09:17:00.675Z,15.60
2018-12-05T09:19:33.051Z,15.60
2018-12-05T09:22:05.499Z,15.60
2018-12-05T09:24:40.820Z,15.50
2018-12-05T09:27:13.231Z,15.50
2018-12-05T09:29:45.567Z,15.50
2018-12-05T09:32:18.608Z,15.50
2018-12-05T09:34:52.724Z,15.50
2018-12-05T09:37:27.266Z,15.50
2018-12-05T09:39:59.564Z,15.50
2018-12-05T09:42:33.603Z,15.40
2018-12-05T09:45:06.034Z,15.50
2018-12-05T09:47:39.180Z,15.50
2018-12-05T09:50:11.593Z,15.50
2018-12-05T09:52:44.846Z,15.50
2018-12-05T09:55:18.027Z,15.50
2018-12-05T09:57:51.270Z,15.50
2018-12-05T10:00:24.229Z,15.50
2018-12-05T10:02:57.232Z,15.50
2018-12-05T10:05:31.110Z,15.50
2018-12-05T10:08:03.339Z,15.50
2018-12-05T10:10:36.204Z,15.40
2018-12-05T10:13:08.566Z,15.40
2018-12-05T10:15:40.890Z,15.30
2018-12-05T10:18:13.245Z,15.30
2018-12-05T10:20:46.930Z,15.30
2018-12-05T10:26:41.247Z,15.30
2018-12-05T10:29:14.754Z,15.20
2018-12-05T10:31:47.182Z,15.20
2018-12-05T10:34:19.624Z,15.20
2018-12-05T10:36:51.967Z,15.10
2018-12-05T10:39:51.998Z,15.10
2018-12-05T10:42:24.884Z,15.20
2018-12-05T10:44:58.560Z,15.20
2018-12-05T10:47:32.456Z,15.20
2018-12-05T10:50:05.344Z,15.10
2018-12-05T10:52:38.683Z,15.10
2018-12-05T10:55:11.432Z,15.10
2018-12-05T10:57:44.192Z,15.10
2018-12-05T11:03:40.035Z,15.00
2018-12-05T11:06:21.047Z,14.90
2018-12-05T11:08:58.663Z,15.00
2018-12-05T11:11:35.445Z,15.10
2018-12-05T11:14:12.114Z,15.20
2018-12-05T11:16:48.812Z,15.20
2018-12-05T11:19:25.454Z,15.30
2018-12-05T11:22:02.138Z,15.30
2018-12-05T11:24:36.246Z,15.30
2018-12-05T11:27:08.580Z,15.30
2018-12-05T11:29:42.641Z,15.30
2018-12-05T11:32:15.754Z,15.30
2018-12-05T11:34:48.054Z,15.30
2018-12-05T11:37:20.346Z,15.40
2018-12-05T11:39:52.714Z,15.40
2018-12-05T11:42:54.929Z,15.40
2018-12-05T11:45:28.222Z,15.50
2018-12-05T11:48:00.950Z,15.50
2018-12-05T11:50:33.363Z,15.50
2018-12-05T11:53:05.772Z,15.50
2018-12-05T11:55:38.042Z,15.50
2018-12-05T11:58:10.330Z,15.50
2018-12-05T12:00:42.875Z,15.40
2018-12-05T12:03:15.205Z,15.30
2018-12-05T12:05:48.243Z,15.30
2018-12-05T12:08:20.808Z,15.20
2018-12-05T12:10:53.257Z,15.10
2018-12-05T12:13:25.703Z,15.10
2018-12-05T12:15:58.247Z,15.00
2018-12-05T12:18:30.826Z,15.00
2018-12-05T12:21:03.211Z,15.00
2018-12-05T12:23:36.097Z,15.00
2018-12-05T12:26:08.668Z,15.00
2018-12-05T12:28:41.755Z,15.00
2018-12-05T12:31:14.196Z,15.00
2018-12-05T12:33:46.720Z,15.00
2018-12-05T12:39:50.805Z,15.10
2018-12-05T12:42:23.659Z,15.20
2018-12-05T12:45:00.587Z,15.20
2018-12-05T12:47:33.564Z,15.30
2018-12-05T12:50:08.575Z,15.40
2018-12-05T12:52:41.335Z,15.40
2018-12-05T12:55:17.496Z,15.50
2018-12-05T12:57:53.060Z,15.70
2018-12-05T13:03:58.970Z,15.80
2018-12-05T13:06:32.528Z,15.90
2018-12-05T13:41:37.481Z,16.30
2018-12-05T13:44:13.732Z,17.00
2018-12-05T13:49:53.623Z,16.80
2018-12-05T13:52:43.600Z,16.80
2018-12-05T13:55:21.171Z,16.90
2018-12-05T13:58:01.287Z,17.00
2018-12-05T14:00:36.075Z,17.00
2018-12-05T14:03:11.965Z,17.10
2018-12-05T14:05:47.631Z,17.10
2018-12-05T14:08:22.648Z,17.10
2018-12-05T14:10:57.609Z,17.20
2018-12-05T14:13:32.613Z,17.40
2018-12-05T14:16:09.659Z,17.80
2018-12-05T14:18:51.104Z,18.20
2018-12-05T14:21:24.916Z,18.50
2018-12-05T14:27:04.595Z,18.70
2018-12-05T14:29:38.686Z,18.30
2018-12-05T14:32:16.151Z,18.60
2018-12-05T14:34:48.803Z,18.50
2018-12-05T14:37:25.476Z,18.40
2018-12-05T14:40:00.977Z,18.80
2018-12-05T14:42:33.858Z,19.10
2018-12-05T14:45:08.924Z,19.40
2018-12-05T14:48:24.167Z,20.40
2018-12-05T14:50:58.850Z,20.90
2018-12-05T14:53:42.911Z,20.90
2018-12-05T14:56:25.373Z,21.10
2018-12-05T14:59:03.204Z,20.30
2018-12-05T15:01:35.929Z,19.50
2018-12-05T15:07:13.206Z,19.40
2018-12-05T15:09:46.862Z,19.60
2018-12-05T15:12:19.816Z,20.70
2018-12-05T15:14:53.364Z,20.70
2018-12-05T15:17:28.478Z,20.80
2018-12-05T15:20:12.087Z,21.30
2018-12-05T15:22:44.929Z,21.40
2018-12-05T15:25:29.304Z,20.70
2018-12-05T15:28:15.226Z,20.40
2018-12-05T15:30:49.992Z,21.10
2018-12-05T15:33:25.034Z,20.90
2018-12-05T15:36:27.925Z,21.10
2018-12-05T15:39:04.018Z,20.90
2018-12-05T15:44:50.672Z,21.00
2018-12-05T15:47:33.535Z,21.70
2018-12-05T15:50:07.736Z,21.20
2018-12-05T15:52:57.655Z,21.00
2018-12-05T15:58:21.510Z,22.50
2018-12-05T16:00:55.560Z,22.40
2018-12-05T16:18:22.845Z,22.00
2018-12-05T16:21:07.836Z,21.90
2018-12-05T16:24:02.948Z,21.60
2018-12-05T16:27:05.522Z,21.30
2018-12-05T16:29:53.874Z,21.20
2018-12-05T16:32:48.999Z,21.40
2018-12-05T16:35:36.064Z,21.50
2018-12-05T16:38:12.071Z,21.30
2018-12-05T16:40:48.962Z,21.70
2018-12-05T16:49:55.412Z,22.40
2018-12-05T16:52:31.005Z,22.50
2018-12-05T16:55:13.039Z,22.50
2018-12-05T16:58:02.045Z,22.90
2018-12-05T17:03:59.404Z,22.60
2018-12-05T17:09:33.334Z,24.00
2018-12-05T17:12:11.754Z,24.10
2018-12-05T17:14:48.750Z,23.90
2018-12-05T17:17:26.871Z,24.20
2018-12-05T17:20:08.133Z,23.80
2018-12-05T17:26:05.115Z,23.70
2018-12-05T17:28:44.302Z,23.20
2018-12-05T17:31:19.543Z,23.50
2018-12-05T17:34:02.891Z,23.20
2018-12-05T17:36:41.767Z,23.00
2018-12-05T17:39:18.388Z,23.10
2018-12-05T17:42:11.240Z,23.50
2018-12-05T17:51:19.824Z,22.90
2018-12-05T17:53:59.219Z,23.60
2018-12-05T17:56:47.936Z,23.50
2018-12-05T17:59:40.787Z,23.40
2018-12-05T18:02:30.812Z,23.70
2018-12-05T18:05:06.109Z,23.80
2018-12-05T18:07:42.760Z,23.10
2018-12-05T18:10:16.568Z,23.70
2018-12-05T18:12:49.830Z,24.10
2018-12-05T18:26:26.484Z,23.70
2018-12-05T18:28:59.661Z,23.60
2018-12-05T18:37:14.511Z,23.80
2018-12-05T18:42:45.631Z,23.70
2018-12-05T18:48:41.414Z,23.60
2018-12-05T18:56:47.486Z,23.80
2018-12-05T19:05:06.261Z,24.00
2018-12-05T19:07:42.650Z,23.80
2018-12-05T19:13:04.231Z,24.10
2018-12-05T19:15:45.853Z,24.20
2018-12-05T19:21:28.421Z,24.00
2018-12-05T19:24:24.038Z,23.90
2018-12-05T19:27:06.301Z,23.80
2018-12-05T19:29:39.029Z,24.40
2018-12-05T19:32:13.750Z,23.80
2018-12-05T19:34:51.686Z,24.40
2018-12-05T19:37:26.191Z,24.90
2018-12-05T19:40:01.807Z,24.20
2018-12-05T19:42:37.302Z,24.50
2018-12-05T19:45:12.127Z,24.60
2018-12-05T19:47:46.832Z,25.00
2018-12-05T19:50:19.971Z,24.80
2018-12-05T19:52:55.479Z,24.50
2018-12-05T19:55:56.829Z,24.20
2018-12-05T19:58:50.835Z,24.30
2018-12-05T20:05:47.709Z,24.30
2018-12-05T20:18:32.282Z,23.90
2018-12-05T20:34:09.076Z,24.30
2018-12-05T20:36:43.689Z,24.10
2018-12-05T20:39:25.899Z,24.00
2018-12-05T20:42:11.238Z,23.80
2018-12-05T20:44:46.504Z,23.70
2018-12-05T20:47:23.062Z,24.20
2018-12-05T20:50:01.228Z,24.10
2018-12-05T20:52:39.838Z,24.30
2018-12-05T20:55:28.181Z,24.00
2018-12-05T21:01:03.179Z,24.20
2018-12-05T21:03:36.565Z,24.10
2018-12-05T21:06:13.190Z,24.00
2018-12-05T21:08:48.783Z,24.00
2018-12-05T21:14:11.773Z,24.50
2018-12-05T21:16:46.316Z,24.40
2018-12-05T21:19:19.577Z,23.90
2018-12-05T21:21:54.547Z,24.00
2018-12-05T21:24:27.299Z,24.40
2018-12-05T21:27:02.267Z,24.00
2018-12-05T21:29:36.533Z,24.30
2018-12-05T21:32:10.530Z,24.00
2018-12-05T21:34:43.232Z,23.70
2018-12-05T21:37:16.718Z,23.70
2018-12-05T21:40:14.914Z,23.70
2018-12-05T21:42:48.166Z,23.60
2018-12-05T21:48:52.230Z,23.50
2018-12-05T21:54:50.926Z,23.50
2018-12-05T22:02:48.204Z,23.20
2018-12-05T22:05:22.289Z,23.20
2018-12-05T22:07:56.767Z,23.20
2018-12-05T22:10:33.003Z,23.20
2018-12-05T22:13:08.265Z,23.30
2018-12-05T22:15:41.983Z,23.30
2018-12-05T22:18:15.811Z,23.30
2018-12-05T22:20:53.322Z,23.20
2018-12-05T22:23:26.304Z,23.10
2018-12-05T22:26:00.122Z,22.80
2018-12-05T22:28:33.177Z,22.90
2018-12-05T22:31:09.613Z,22.90
2018-12-05T22:37:04.081Z,23.10
2018-12-05T22:39:37.594Z,23.00
2018-12-05T22:42:10.425Z,23.10
2018-12-05T22:44:44.368Z,23.00
2018-12-05T22:47:17.990Z,22.80
2018-12-05T22:49:50.867Z,22.60
2018-12-05T22:52:24.311Z,22.30
2018-12-05T22:54:57.108Z,22.20
2018-12-05T22:57:31.136Z,22.00
2018-12-05T23:00:03.963Z,21.70
2018-12-05T23:02:36.925Z,21.50
2018-12-05T23:07:45.304Z,21.40
2018-12-05T23:10:27.600Z,21.30
2018-12-05T23:13:02.511Z,21.20
2018-12-05T23:15:37.387Z,21.10
2018-12-05T23:18:14.676Z,21.00
2018-12-05T23:20:49.735Z,20.90
2018-12-05T23:23:29.379Z,20.90
2018-12-05T23:26:03.496Z,20.80
2018-12-05T23:28:52.136Z,20.70
2018-12-05T23:31:26.438Z,20.60
2018-12-05T23:34:05.116Z,20.60
2018-12-05T23:36:39.455Z,20.50
2018-12-05T23:39:14.380Z,20.40
2018-12-05T23:41:48.993Z,20.20
2018-12-05T23:44:34.180Z,20.10
2018-12-05T23:47:11.226Z,20.10
2018-12-05T23:49:48.017Z,20.10
2018-12-05T23:52:26.771Z,20.00
2018-12-05T23:56:04.846Z,19.90
2018-12-05T23:58:40.882Z,19.90
